Pioche, Nevada Weather observations

Data are for observation ending at time listed.
 Day   Time    Ave.   Ave.  Ave.  Vector   Max.   Stn.    Total    Solar   Ave.  
  of    of     Air    Rel.  Wind   Wind    Wind   Baro.  Precip.   Rad.    Soil  
Year   Day     Temp.  Hum.  Speed  Dir.    Gust   Pres.                    Temp. 
2026   (PST)    F      %     mph   deg.    mph     mb.     in.     W/m2     F   
------------------------------------------------------------------------------
 127    2:50   44.5    33    0.1   200      1.7   822.8    0.00       0    60.2
 127    3:00   44.5    34    0.3   106      1.4   822.8    0.00       0    60.1
 127    3:10   44.3    35    0.6   157      2.6   822.8    0.00       0    60.1
 127    3:20   44.4    34    1.1   128      2.3   822.7    0.00       0    60.1
 127    3:30   43.8    41    0.6   192      2.2   822.7    0.00       0    60.0
 127    3:40   45.0    34    2.2   106      3.8   822.6    0.00       0    60.0
 127    3:50   46.7    29    2.4    89      4.4   822.6    0.00       0    60.0
 127    4:00   45.9    35    0.8   140      2.6   822.7    0.00       0    59.9
 127    4:10   44.6    35    0.6   178      2.6   822.7    0.00       0    59.9
 127    4:20   43.7    36    0.4   281      1.7   822.6    0.00       0    59.9
 127    4:30   43.5    37    0.1   262      1.0   822.6    0.00       0    59.8
 127    4:40   42.7    38    0.8   231      2.3   822.6    0.00       3    59.8
 127    4:50   42.7    38    0.3   198      1.9   822.6    0.00       9    59.8
 127    5:00   42.7    39    0.6   205      1.5   822.6    0.00      14    59.7
 127    5:10   42.9    38    0.8   217      1.5   822.6    0.00      21    59.7
 127    5:20   44.6    36    0.6   222      1.5   822.7    0.00      27    59.6
 127    5:30   45.6    34    1.3   271      2.8   822.7    0.00      31    59.6
 127    5:40   47.0    33    1.3   270      3.0   822.8    0.00      35    59.6
 127    5:50   48.0    30    0.9   291      2.2   822.8    0.00      38    59.5
 127    6:00   48.9    29    0.0   335      0.6   822.8    0.00     195    59.5
 127    6:10   50.6    28    0.1   324      0.9   822.9    0.00     216    59.5
 127    6:20   52.0    28    1.3   291      2.3   823.0    0.00     180    59.4
 127    6:30   54.0    24    0.7   310      1.5   823.1    0.00     149    59.4
 127    6:40   56.4    21    0.5    21      1.6   823.0    0.00     194    59.4
 127    6:50   57.3    22    0.4   356      2.8   823.0    0.00     396    59.3
 127    7:00   57.2    24    0.8    53      3.4   823.2    0.00     409    59.3
 127    7:10   57.4    23    0.7    47      2.4   823.2    0.00     527    59.3
 127    7:20   58.3    23    0.6    62      2.5   823.3    0.00     567    59.3
 127    7:30   59.6    22    1.2   316      3.2   823.2    0.00     603    59.3
 127    7:40   60.6    22    0.8    37      2.7   823.1    0.00     639    59.3
 127    7:50   62.5    20    0.7    33      3.3   823.1    0.00     675    59.3
 127    8:00   63.1    20    1.0   344      2.3   823.0    0.00     710    59.3
 127    8:10   63.8    20    0.8   319      3.6   823.0    0.00     743    59.3
 127    8:20   65.0    19    1.1   312      3.1   823.0    0.00     775    59.3
 127    8:30   65.0    20    1.5   335      3.7   823.0    0.00     807    59.3
 127    8:40   66.1    19    1.1    76      4.0   823.0    0.00     837    59.3
 127    8:50   66.3    19    2.5    86      5.5   822.8    0.00     867    59.3
 127    9:00   67.3    19    2.3    73      6.4   822.8    0.00     895    59.3
 127    9:10   68.7    18    1.9    47      5.2   822.7    0.00     921    59.3
 127    9:20   69.4    16    1.7   333      4.1   822.6    0.00     947    59.3
 127    9:30   70.2    16    1.6    67      4.9   822.6    0.00     971    59.2
 127    9:40   70.4    16    2.7   120      6.9   822.5    0.00     992    59.2
 127    9:50   70.4    16    2.2    68      5.4   822.4    0.00    1010    59.2
 127   10:00   70.8    16    4.0   128     11.9   822.4    0.00    1030    59.2
 127   10:10   70.5    16    5.0   144     11.2   822.3    0.00    1049    59.3
 127   10:20   69.8    15    5.9   108     12.5   822.3    0.00    1063    59.2
 127   10:30   70.4    15    4.9   114      9.3   822.2    0.00    1074    59.3
 127   10:40   71.4    15    4.3   119      8.7   822.1    0.00    1083    59.2
 127   10:50   72.0    16    5.5   118     17.5   822.0    0.00    1096    59.2
 127   11:00   72.4    15    4.3   112     10.4   822.0    0.00    1107    59.2
 127   11:10   72.4    15    3.9   145      9.4   822.0    0.00    1107    59.2
 127   11:20   73.1    15    5.0    91     11.8   821.8    0.00    1114    59.3
 127   11:30   72.8    15    6.9   108     14.4   821.6    0.00    1112    59.3
 127   11:40   73.6    15    2.8   100     12.9   821.5    0.00    1112    59.4
 127   11:50   74.4    14    4.6   143     11.0   821.5    0.00    1110    59.5
 127   12:00   73.6    15    3.6   159      9.0   821.4    0.00    1106    59.5
 127   12:10   74.4    15    4.4   141     10.6   821.3    0.00    1099    59.5
 127   12:20   75.1    15    4.7   194     10.6   821.2    0.00    1093    59.6
 127   12:30   74.4    14    3.0   175      6.6   821.3    0.00    1083    59.6
 127   12:40   74.4    14    4.4   116      8.6   821.0    0.00    1068    59.7
 127   12:50   74.5    14    3.6    79      9.8   820.9    0.00    1057    59.8
 127   13:00   75.8    13    2.8   318      7.5   820.7    0.00    1044    59.8
 127   13:10   76.5    12    5.2   264     11.4   820.7    0.00    1034    59.9
 127   13:20   75.7    13    9.6   282     21.4   820.1    0.00    1017    60.0
 127   13:30   75.5    13   10.0   284     22.2   819.6    0.00     998    60.1
 127   13:40   75.7    12    7.3   270     15.1   819.7    0.00     974    60.2
 127   13:50   75.8    12    5.7   268     20.4   818.3    0.00     950    60.2
 127   14:00   75.5    13    8.5   272     18.5   818.0    0.00     923    60.3
 127   14:10   76.1    13    5.9   287     16.0   817.7    0.00     901    60.4
 127   14:20   76.0    13    3.3   266      9.7   817.7    0.00     871    60.5
 127   14:30   76.2    13    7.6   272     17.0   817.1    0.00     729    60.5
 127   14:40   75.3    13    7.1   247     17.7   816.9    0.00     132    60.6
 127   14:50   75.2    13    5.5   253     14.5   816.5    0.00      56    60.7
 127   15:00   75.1    13    6.4   256     13.6   816.3    0.00      54    60.8
 127   15:10   75.2    13   10.4   272     19.6   815.9    0.00      57    60.8
 127   15:20   75.2    13   10.5   270     19.6   816.2    0.00      67    60.9
 127   15:30   75.4    13   11.7   279     19.8   816.1    0.00      64    61.0
 127   15:40   75.3    13    7.9   276     16.1   816.3    0.00      66    61.1
 127   15:50   75.4    13    5.6   238     15.6   815.9    0.00      63    61.2
 127   16:00   75.6    13    6.6   260     17.4   815.6    0.00      50    61.2
 127   16:10   75.8    13    8.0   268     20.4   815.5    0.00      54    61.3
 127   16:20   75.4    13   10.4   275     18.3   815.6    0.00      48    61.3
 127   16:30   75.5    13    5.8   253     13.4   815.7    0.00      43    61.4
 127   16:40   75.3    13    6.4   287     11.6   815.6    0.00      44    61.4
 127   16:50   75.4    13    4.7   270     12.1   815.4    0.00      45    61.5
 127   17:00   74.9    13    4.3   269      8.7   815.6    0.00      40    61.5
 127   17:10   75.0    13    6.6   270     14.1   815.1    0.00      38    61.5
 127   17:20   75.4    14    7.6   295     11.8   815.0    0.00      62    61.6
 127   17:30   75.6    14    8.3   288     13.9   814.8    0.00      84    61.6
 127   17:40   75.2    14    7.0   282     11.8   814.9    0.00     152    61.7
 127   17:50   75.0    14    6.4   274     10.8   814.9    0.00     144    61.7
 127   18:00   74.6    14    5.6   269      9.3   815.1    0.00     108    61.8
 127   18:10   74.2    14    4.2   264     12.4   815.2    0.00      67    61.9
 127   18:20   72.8    15    1.7   240      3.4   815.0    0.00      24    62.0
 127   18:30   70.6    18    2.3   212      4.2   815.1    0.00      11    62.0
 127   18:40   69.6    18    2.2   214      4.1   815.2    0.00       6    62.1
 127   18:50   68.7    18    2.8   208      4.7   815.3    0.00       1    62.2
 127   19:00   68.5    18    2.6   209      4.6   815.3    0.00       0    62.3
 127   19:10   68.4    18    2.8   208      4.7   815.3    0.00       0    62.3
 127   19:20   68.2    18    2.5   207      4.5   815.4    0.00       0    62.4
 127   19:30   67.6    18    3.2   204      4.5   815.6    0.00       0    62.4
 127   19:40   67.4    18    2.8   207      4.8   816.0    0.00       0    62.4
 127   19:50   67.2    18    2.5   209      4.3   816.4    0.00       0    62.4
 127   20:00   67.1    19    2.3   205      4.4   816.6    0.00       0    62.5
 127   20:10   66.9    19    2.3   208      3.9   816.4    0.00       0    62.5
 127   20:20   67.2    18    1.8   212      3.4   816.3    0.00       0    62.5
 127   20:30   67.0    18    1.7   215      4.5   816.3    0.00       0    62.5
 127   20:40   67.2    18    1.9   138      5.0   816.5    0.00       0    62.5
 127   20:50   63.3    22    1.3    91      4.3   816.7    0.00       0    62.5
 127   21:00   61.5    24    1.6   183      3.6   816.7    0.00       0    62.5
 127   21:10   61.0    25    1.6   170      3.7   816.6    0.00       0    62.5
 127   21:20   61.3    25    1.3   182      3.4   816.9    0.00       0    62.6
 127   21:30   60.7    25    1.0   234      3.1   816.9    0.00       0    62.6
 127   21:40   61.5    24    1.7   209      3.9   816.9    0.00       0    62.6
 127   21:50   62.2    24    3.3   149      5.6   817.0    0.00       0    62.6
 127   22:00   61.9    24    3.8   145      6.0   817.2    0.00       0    62.6
 127   22:10   62.1    23    3.4   147      5.9   817.2    0.00       0    62.6
 127   22:20   61.5    24    1.3   173      3.9   817.3    0.00       0    62.6
 127   22:30   59.9    26    1.5   245      3.1   817.6    0.00       0    62.5
 127   22:40   58.6    26    1.1   185      2.1   817.7    0.00       0    62.5
 127   22:50   58.1    28    3.0   116      5.6   817.4    0.00       0    62.5
 127   23:00   58.9    26    2.5   138      4.9   817.1    0.00       0    62.5
 127   23:10   58.8    27    2.7   174      5.6   817.2    0.00       0    62.5
 127   23:20   58.4    27    1.3   184      3.4   817.0    0.00       0    62.5
 127   23:30   60.0    25    1.8   173      3.6   816.9    0.00       0    62.4
 127   23:40   59.6    25    1.6   149      3.8   817.5    0.00       0    62.4
 127   23:50   58.2    28    2.0    96      3.4   817.6    0.00       0    62.4
 128    0:00   56.3    30    1.4   138      3.4   817.6    0.00       0    62.4
 128    0:10   55.6    31    1.1   195      2.8   817.6    0.00       0    62.4
 128    0:20   55.1    31    1.1   194      2.7   817.6    0.00       0    62.4
 128    0:30   55.0    32    1.1   162      2.5   817.7    0.00       0    62.4
 128    0:40   54.7    32    2.2   150      3.9   817.8    0.00       0    62.4
 128    0:50   55.3    31    3.2   146      5.6   818.8    0.00       0    62.4
 128    1:00   55.5    30    1.5   152      3.4   818.7    0.00       0    62.3
 128    1:10   56.3    29    2.0   150      3.7   818.3    0.00       0    62.3
 128    1:20   57.1    28    1.5   152      3.5   818.5    0.00       0    62.3
 128    1:30   57.3    28    0.9   147      2.6   818.4    0.00       0    62.3
 128    1:40   55.7    30    0.5   159      1.7   818.2    0.00       0    62.3
 128    1:50   55.5    31    1.2   176      2.4   818.7    0.00       0    62.2
 128    2:00   56.0    30    1.5   147      2.8   819.2    0.00       0    62.2
 128    2:10   56.1    30    1.5   113      3.5   819.4    0.00       0    62.2
 128    2:20   53.8    34    1.6   174      2.6   819.4    0.00       0    62.2
 128    2:30   54.0    34    1.5   191      2.8   819.4    0.00       0    62.1
 128    2:40   54.1    34    0.8   217      2.4   819.5    0.00       0    62.1

Return to Pioche, Nevada graphs page.


Western Regional Climate Center,wrcc@dri.edu